createdAt,value
2023-01-10T00:00:35.260Z,34.23
2023-01-10T00:03:03.293Z,29.00
2023-01-10T00:05:30.776Z,26.40
2023-01-10T00:07:59.892Z,27.73
2023-01-10T00:10:27.298Z,29.37
2023-01-10T00:13:13.331Z,30.37
2023-01-10T00:15:40.876Z,28.33
2023-01-10T00:18:08.318Z,33.20
2023-01-10T00:20:36.182Z,34.90
2023-01-10T00:23:03.787Z,26.50
2023-01-10T00:25:33.412Z,28.70
2023-01-10T00:28:19.451Z,25.87
2023-01-10T00:31:01.272Z,29.00
2023-01-10T00:33:32.082Z,29.23
2023-01-10T00:36:03.105Z,33.80
2023-01-10T00:38:31.223Z,22.37
2023-01-10T00:40:58.551Z,31.07
2023-01-10T00:43:45.089Z,27.20
2023-01-10T00:46:12.812Z,25.30
2023-01-10T00:48:41.474Z,24.10
2023-01-10T00:51:08.859Z,19.90
2023-01-10T00:53:36.198Z,24.13
2023-01-10T00:56:03.671Z,21.93
2023-01-10T00:58:31.022Z,23.03
2023-01-10T01:00:58.567Z,15.77
2023-01-10T01:03:25.996Z,23.37
2023-01-10T01:05:53.521Z,24.33
2023-01-10T01:08:20.930Z,28.27
2023-01-10T01:10:48.422Z,18.67
2023-01-10T01:13:17.712Z,22.27
2023-01-10T01:15:45.377Z,12.80
2023-01-10T01:18:14.014Z,15.53
2023-01-10T01:20:42.066Z,11.50
2023-01-10T01:23:09.461Z,12.20
2023-01-10T01:25:36.826Z,10.27
2023-01-10T01:28:04.785Z,20.67
2023-01-10T01:30:32.108Z,10.70
2023-01-10T01:32:59.744Z,12.47
2023-01-10T01:35:27.171Z,11.23
2023-01-10T01:37:54.534Z,13.63
2023-01-10T01:40:46.900Z,9.97
2023-01-10T01:43:23.285Z,6.20
2023-01-10T01:45:50.931Z,8.43
2023-01-10T01:48:18.350Z,8.90
2023-01-10T01:51:07.705Z,8.77
2023-01-10T01:53:38.171Z,7.17
2023-01-10T01:56:08.786Z,11.87
2023-01-10T01:58:56.435Z,12.77
2023-01-10T02:01:24.171Z,13.93
2023-01-10T02:03:55.351Z,15.40
2023-01-10T02:06:24.203Z,9.33
2023-01-10T02:08:56.062Z,14.73
2023-01-10T02:11:23.452Z,8.83
2023-01-10T02:13:51.229Z,9.53
2023-01-10T02:16:18.812Z,23.57
2023-01-10T02:18:46.323Z,12.97
2023-01-10T02:21:20.962Z,19.07
2023-01-10T02:24:06.403Z,14.07
2023-01-10T02:26:44.386Z,10.33
2023-01-10T02:29:14.892Z,8.87
2023-01-10T02:32:00.968Z,17.83
2023-01-10T02:34:33.602Z,15.37
2023-01-10T02:37:03.666Z,16.83
2023-01-10T02:39:36.742Z,16.10
2023-01-10T02:42:07.532Z,13.60
2023-01-10T02:44:41.473Z,22.70
2023-01-10T02:47:09.991Z,16.83
2023-01-10T02:49:47.522Z,25.73
2023-01-10T02:52:17.542Z,17.17
2023-01-10T02:54:44.965Z,16.40
2023-01-10T02:57:29.598Z,23.90
2023-01-10T03:00:15.959Z,19.53
2023-01-10T03:03:07.872Z,25.63
2023-01-10T03:08:07.783Z,28.93
2023-01-10T03:10:42.127Z,27.43
2023-01-10T03:13:13.568Z,26.97
2023-01-10T03:15:41.737Z,30.40
2023-01-10T03:18:11.531Z,23.90
2023-01-10T03:20:40.451Z,28.27
2023-01-10T03:23:08.052Z,33.47
2023-01-10T03:25:37.603Z,28.80
2023-01-10T03:28:11.183Z,43.43
2023-01-10T03:30:45.105Z,33.87
2023-01-10T03:33:13.740Z,41.07
2023-01-10T03:35:51.996Z,37.07
2023-01-10T03:38:27.273Z,36.83
2023-01-10T03:40:57.987Z,32.53
2023-01-10T03:43:51.954Z,32.83
2023-01-10T03:46:24.326Z,49.13
2023-01-10T03:48:51.835Z,37.90
2023-01-10T03:51:19.453Z,42.97
2023-01-10T03:53:46.830Z,24.80
2023-01-10T03:56:14.956Z,35.80
2023-01-10T03:58:42.588Z,28.97
2023-01-10T04:01:10.037Z,32.53
2023-01-10T04:03:37.457Z,31.60
2023-01-10T04:06:04.947Z,31.30
2023-01-10T04:08:32.343Z,38.13
2023-01-10T04:10:59.706Z,29.63
2023-01-10T04:13:27.225Z,35.47
2023-01-10T04:15:54.579Z,34.03
2023-01-10T04:18:21.981Z,33.07
2023-01-10T04:20:52.064Z,34.23
2023-01-10T04:23:19.607Z,32.13
2023-01-10T04:25:48.135Z,36.90
2023-01-10T04:28:15.598Z,30.60
2023-01-10T04:30:42.934Z,36.93
2023-01-10T04:33:11.733Z,36.83
2023-01-10T04:35:39.108Z,31.50
2023-01-10T04:38:06.477Z,28.87
2023-01-10T04:40:33.869Z,19.43
2023-01-10T04:43:01.266Z,40.60
2023-01-10T04:45:28.685Z,27.60
2023-01-10T04:47:56.290Z,38.23
2023-01-10T04:50:23.920Z,45.27
2023-01-10T04:52:51.279Z,29.57
2023-01-10T04:55:18.644Z,29.13
2023-01-10T04:57:46.208Z,30.63
2023-01-10T05:00:14.004Z,25.97
2023-01-10T05:02:44.478Z,44.30
2023-01-10T05:05:12.910Z,30.17
2023-01-10T05:07:40.994Z,29.43
2023-01-10T05:10:09.083Z,26.43
2023-01-10T05:12:36.661Z,25.83
2023-01-10T05:15:05.020Z,30.03
2023-01-10T05:17:34.951Z,27.70
2023-01-10T05:20:02.407Z,32.27
2023-01-10T05:22:29.847Z,29.40
2023-01-10T05:24:57.284Z,33.33
2023-01-10T05:27:24.845Z,25.83
2023-01-10T05:29:52.295Z,28.50
2023-01-10T05:32:19.635Z,45.70
2023-01-10T05:34:47.233Z,19.70
2023-01-10T05:37:14.551Z,32.73
2023-01-10T05:39:43.170Z,26.53
2023-01-10T05:42:10.803Z,39.50
2023-01-10T05:44:38.154Z,24.50
2023-01-10T05:47:05.533Z,26.50
2023-01-10T05:49:34.184Z,27.97
2023-01-10T05:52:01.692Z,26.47
2023-01-10T05:54:29.833Z,32.00
2023-01-10T05:56:57.416Z,33.30
2023-01-10T05:59:28.601Z,43.97
2023-01-10T06:01:56.604Z,57.33
2023-01-10T06:04:24.082Z,24.83
2023-01-10T06:06:51.411Z,34.30
2023-01-10T06:09:18.886Z,38.03
2023-01-10T06:11:46.290Z,31.33
2023-01-10T06:14:13.658Z,28.30
2023-01-10T06:16:41.780Z,29.60
2023-01-10T06:19:09.398Z,29.83
2023-01-10T06:21:36.723Z,34.40
2023-01-10T06:24:04.298Z,28.87
2023-01-10T06:26:31.624Z,36.13
2023-01-10T06:28:59.672Z,28.63
2023-01-10T06:31:27.599Z,41.50
2023-01-10T06:33:55.139Z,33.10
2023-01-10T06:36:22.492Z,44.77
2023-01-10T06:38:49.853Z,35.73
2023-01-10T06:41:17.275Z,33.30
2023-01-10T06:43:45.629Z,38.50
2023-01-10T06:46:13.777Z,42.80
2023-01-10T06:48:43.265Z,26.23
2023-01-10T06:51:10.692Z,35.50
2023-01-10T06:53:38.088Z,39.30
2023-01-10T06:56:06.064Z,35.53
2023-01-10T06:58:34.858Z,38.87
2023-01-10T07:01:02.549Z,27.40
2023-01-10T07:03:29.942Z,31.97
2023-01-10T07:06:00.859Z,36.47
2023-01-10T07:08:28.424Z,35.47
2023-01-10T07:10:58.199Z,39.87
2023-01-10T07:13:25.560Z,36.07
2023-01-10T07:15:53.039Z,39.00
2023-01-10T07:18:20.533Z,38.73
2023-01-10T07:20:47.881Z,36.00
2023-01-10T07:23:15.241Z,39.97
2023-01-10T07:25:42.713Z,49.87
2023-01-10T07:28:10.069Z,40.77
2023-01-10T07:30:37.795Z,37.97
2023-01-10T07:33:06.320Z,52.23
2023-01-10T07:35:33.935Z,41.40
2023-01-10T07:38:03.081Z,42.40
2023-01-10T07:40:30.672Z,45.43
2023-01-10T07:42:58.567Z,44.40
2023-01-10T07:45:29.689Z,38.80
2023-01-10T07:48:00.988Z,42.17
2023-01-10T07:50:29.496Z,53.47
2023-01-10T07:52:56.895Z,57.60
2023-01-10T07:55:24.331Z,41.47
2023-01-10T07:57:52.155Z,46.30
2023-01-10T08:00:20.212Z,53.10
2023-01-10T08:02:47.809Z,40.20
2023-01-10T08:05:15.483Z,35.90
2023-01-10T08:07:42.858Z,49.23
2023-01-10T08:10:10.560Z,50.83
2023-01-10T08:12:37.954Z,50.00
2023-01-10T08:15:05.573Z,47.53
2023-01-10T08:17:36.209Z,49.60
2023-01-10T08:20:03.802Z,42.37
2023-01-10T08:22:31.181Z,57.27
2023-01-10T08:24:58.537Z,39.63
2023-01-10T08:27:25.869Z,40.90
2023-01-10T08:29:53.536Z,45.20
2023-01-10T08:32:20.868Z,40.00
2023-01-10T08:34:48.317Z,47.03
2023-01-10T08:37:15.776Z,51.10
2023-01-10T08:39:43.203Z,35.23
2023-01-10T08:42:10.593Z,42.27
2023-01-10T08:44:38.214Z,39.20
2023-01-10T08:47:05.760Z,52.57
2023-01-10T08:49:33.171Z,46.10
2023-01-10T08:52:02.360Z,44.53
2023-01-10T08:54:29.836Z,44.50
2023-01-10T08:56:57.218Z,44.00
2023-01-10T08:59:24.562Z,44.30
2023-01-10T09:01:51.938Z,46.63
2023-01-10T09:04:19.305Z,45.53
2023-01-10T09:06:46.674Z,40.00
2023-01-10T09:09:14.033Z,37.20
2023-01-10T09:11:42.008Z,45.63
2023-01-10T09:14:09.469Z,39.47
2023-01-10T09:16:36.844Z,49.90
2023-01-10T09:19:04.474Z,42.70
2023-01-10T09:21:31.872Z,30.27
2023-01-10T09:23:59.210Z,30.37
2023-01-10T09:26:26.611Z,39.60
2023-01-10T09:28:53.947Z,39.90
2023-01-10T09:31:21.343Z,36.33
2023-01-10T09:33:49.786Z,42.80
2023-01-10T09:36:17.303Z,42.87
2023-01-10T09:38:45.047Z,44.33
2023-01-10T09:41:25.892Z,48.43
2023-01-10T09:44:12.102Z,45.10
2023-01-10T09:46:45.673Z,41.50
2023-01-10T09:49:20.435Z,51.87
2023-01-10T09:51:50.600Z,33.17
2023-01-10T09:54:20.760Z,44.13
2023-01-10T09:56:48.794Z,48.73
2023-01-10T09:59:18.230Z,56.53
2023-01-10T10:01:46.193Z,52.57
2023-01-10T10:04:23.163Z,45.33
2023-01-10T10:06:51.338Z,41.17
2023-01-10T10:09:30.759Z,50.23
2023-01-10T10:12:10.575Z,52.73
2023-01-10T10:14:52.990Z,50.37
2023-01-10T10:17:53.043Z,58.50
2023-01-10T10:20:24.874Z,50.93
2023-01-10T10:23:15.048Z,38.87
2023-01-10T10:25:48.255Z,37.03
2023-01-10T10:28:18.582Z,42.20
2023-01-10T10:30:53.578Z,29.37
2023-01-10T10:33:26.968Z,41.60
2023-01-10T10:35:58.181Z,37.90
2023-01-10T10:38:34.501Z,43.33
2023-01-10T10:41:02.187Z,42.73
2023-01-10T10:43:36.479Z,44.80
2023-01-10T10:46:05.318Z,42.63
2023-01-10T10:48:43.767Z,37.00
2023-01-10T10:51:34.302Z,40.57
2023-01-10T10:54:01.771Z,49.23
2023-01-10T10:56:29.327Z,39.50
2023-01-10T10:58:59.514Z,37.90
2023-01-10T11:01:27.252Z,33.67
2023-01-10T11:04:07.509Z,39.30
2023-01-10T11:06:36.599Z,49.13
2023-01-10T11:09:05.232Z,39.97
2023-01-10T11:11:40.384Z,50.07
2023-01-10T11:14:08.579Z,41.70
2023-01-10T11:16:37.676Z,39.43
2023-01-10T11:19:14.413Z,50.97
2023-01-10T11:21:42.509Z,48.77
2023-01-10T11:24:21.031Z,45.20
2023-01-10T11:26:48.800Z,46.67
2023-01-10T11:29:16.130Z,38.57
2023-01-10T11:31:43.928Z,38.33
2023-01-10T11:34:26.365Z,49.40
2023-01-10T11:36:53.712Z,37.03
2023-01-10T11:39:21.086Z,44.50
2023-01-10T11:41:49.385Z,47.13
2023-01-10T11:44:18.550Z,42.23
2023-01-10T11:46:46.665Z,44.57
2023-01-10T11:49:19.853Z,47.27
2023-01-10T11:51:51.802Z,29.20
2023-01-10T11:54:26.426Z,46.90
2023-01-10T11:56:58.619Z,39.50
2023-01-10T11:59:51.858Z,38.30
2023-01-10T12:02:23.777Z,54.23
2023-01-10T12:04:52.286Z,36.97
2023-01-10T12:07:19.611Z,54.27
2023-01-10T12:09:59.182Z,40.37
2023-01-10T12:12:38.674Z,43.57
2023-01-10T12:15:41.554Z,39.43
2023-01-10T12:18:08.999Z,42.53
2023-01-10T12:20:42.429Z,43.50
2023-01-10T12:23:14.194Z,29.53
2023-01-10T12:25:42.577Z,41.90
2023-01-10T12:28:23.845Z,51.70
2023-01-10T12:30:52.778Z,32.90
2023-01-10T12:33:22.657Z,40.93
2023-01-10T12:35:53.745Z,36.87
2023-01-10T12:38:44.979Z,41.87
2023-01-10T12:41:36.222Z,48.67
2023-01-10T12:44:11.662Z,33.13
2023-01-10T12:47:09.173Z,34.40
2023-01-10T12:49:43.216Z,36.17
2023-01-10T12:52:42.991Z,35.37
2023-01-10T12:55:13.952Z,31.73
2023-01-10T12:57:44.142Z,32.30
2023-01-10T13:00:29.499Z,35.80
2023-01-10T13:03:00.034Z,52.47
2023-01-10T13:05:28.746Z,42.87
2023-01-10T13:08:00.698Z,43.70
2023-01-10T13:10:29.232Z,26.67
2023-01-10T13:13:02.951Z,42.77
2023-01-10T13:15:32.717Z,38.33
2023-01-10T13:18:03.083Z,24.53
2023-01-10T13:20:37.373Z,41.27
2023-01-10T13:23:14.478Z,23.73
2023-01-10T13:25:41.864Z,31.23
2023-01-10T13:28:18.854Z,32.13
2023-01-10T13:30:52.087Z,32.67
2023-01-10T13:33:19.349Z,27.47
2023-01-10T13:35:48.964Z,38.53
2023-01-10T13:38:19.390Z,22.77
2023-01-10T13:40:58.989Z,31.47
2023-01-10T13:43:38.004Z,38.90
2023-01-10T13:46:17.573Z,31.67
2023-01-10T13:48:51.057Z,23.13
2023-01-10T13:51:20.257Z,33.33
2023-01-10T13:53:53.360Z,38.13
2023-01-10T13:56:32.909Z,42.33
2023-01-10T13:59:19.416Z,26.97
2023-01-10T14:02:13.246Z,38.07
2023-01-10T14:04:46.386Z,29.40
2023-01-10T14:07:18.606Z,41.80
2023-01-10T14:09:46.679Z,24.50
2023-01-10T14:12:19.815Z,35.53
2023-01-10T14:14:51.715Z,44.20
2023-01-10T14:17:23.351Z,33.03
2023-01-10T14:19:59.313Z,32.77
2023-01-10T14:22:32.222Z,30.63
2023-01-10T14:25:00.630Z,35.40
2023-01-10T14:27:33.074Z,25.77
2023-01-10T14:30:01.142Z,29.53
2023-01-10T14:32:32.680Z,31.83
2023-01-10T14:35:04.636Z,36.77
2023-01-10T14:37:37.408Z,25.20
2023-01-10T14:40:15.459Z,32.63
2023-01-10T14:42:42.742Z,32.53
2023-01-10T14:45:31.167Z,40.83
2023-01-10T14:47:58.420Z,40.10
2023-01-10T14:50:27.829Z,43.53
2023-01-10T14:52:56.303Z,26.87
2023-01-10T14:55:23.667Z,27.30
2023-01-10T14:57:55.843Z,31.50
2023-01-10T15:00:33.767Z,23.00
2023-01-10T15:03:03.887Z,32.73
2023-01-10T15:05:33.083Z,32.87
2023-01-10T15:08:21.846Z,23.07
2023-01-10T15:10:52.213Z,34.57
2023-01-10T15:13:23.013Z,32.33
2023-01-10T15:15:52.980Z,33.20
2023-01-10T15:18:26.110Z,18.20
2023-01-10T15:20:53.887Z,35.50
2023-01-10T15:23:21.145Z,22.57
2023-01-10T15:25:55.793Z,35.30
2023-01-10T15:28:23.074Z,27.53
2023-01-10T15:30:50.383Z,24.87
2023-01-10T15:33:26.949Z,35.03
2023-01-10T15:35:54.934Z,21.17
2023-01-10T15:38:26.390Z,22.47
2023-01-10T15:41:02.585Z,24.20
2023-01-10T15:43:31.394Z,23.40
2023-01-10T15:45:59.984Z,35.30
2023-01-10T15:48:30.423Z,22.33
2023-01-10T15:51:03.883Z,26.30
2023-01-10T15:53:52.624Z,26.43
2023-01-10T15:56:26.061Z,29.93
2023-01-10T15:58:53.939Z,19.10
2023-01-10T16:01:21.472Z,20.47
2023-01-10T16:03:53.493Z,20.77
2023-01-10T16:06:32.575Z,25.80
2023-01-10T16:09:01.775Z,23.43
2023-01-10T16:11:47.863Z,22.17
2023-01-10T16:14:15.190Z,27.20
2023-01-10T16:16:42.547Z,20.50
2023-01-10T16:19:09.872Z,29.00
2023-01-10T16:21:39.698Z,22.47
2023-01-10T16:24:10.789Z,25.33
2023-01-10T16:26:38.197Z,23.10
2023-01-10T16:29:05.549Z,23.43
2023-01-10T16:31:32.899Z,18.60
2023-01-10T16:34:00.169Z,25.07
2023-01-10T16:36:27.558Z,27.27
2023-01-10T16:38:54.889Z,23.00
2023-01-10T16:41:40.777Z,14.83
2023-01-10T16:44:08.907Z,17.27
2023-01-10T16:46:36.399Z,25.93
2023-01-10T16:49:06.508Z,19.40
2023-01-10T16:51:34.199Z,23.87
2023-01-10T16:54:01.671Z,26.00
2023-01-10T16:56:32.684Z,23.67
2023-01-10T16:59:00.149Z,23.97
2023-01-10T17:01:30.288Z,25.20
2023-01-10T17:03:58.094Z,26.43
2023-01-10T17:06:25.403Z,27.93
2023-01-10T17:08:52.668Z,23.53
2023-01-10T17:11:22.379Z,22.30
2023-01-10T17:13:49.778Z,18.47
2023-01-10T17:16:19.562Z,22.57
2023-01-10T17:18:47.377Z,17.53
2023-01-10T17:21:19.056Z,25.17
2023-01-10T17:23:46.761Z,15.37
2023-01-10T17:26:15.184Z,21.40
2023-01-10T17:28:46.601Z,20.13
2023-01-10T17:31:15.063Z,15.40
2023-01-10T17:33:42.921Z,22.27
2023-01-10T17:36:12.024Z,10.43
2023-01-10T17:38:39.822Z,24.17
2023-01-10T17:41:07.450Z,20.67
2023-01-10T17:43:34.755Z,24.77
2023-01-10T17:46:05.662Z,24.47
2023-01-10T17:48:35.221Z,20.63
2023-01-10T17:51:03.434Z,22.55
2023-01-10T17:53:30.990Z,29.40
2023-01-10T17:56:02.200Z,20.23
2023-01-10T17:58:29.635Z,26.40
2023-01-10T18:00:57.094Z,16.50
2023-01-10T18:03:24.469Z,16.63
2023-01-10T18:05:52.854Z,18.65
2023-01-10T18:08:20.561Z,16.07
2023-01-10T18:10:50.511Z,10.73
2023-01-10T18:13:21.121Z,29.70
2023-01-10T18:15:49.376Z,13.87
2023-01-10T18:18:16.932Z,16.50
2023-01-10T18:20:45.138Z,19.13
2023-01-10T18:23:22.496Z,24.13
2023-01-10T18:25:53.971Z,11.27
2023-01-10T18:28:35.155Z,18.17
2023-01-10T18:31:08.272Z,14.27
2023-01-10T18:33:35.784Z,19.93
2023-01-10T18:36:03.956Z,14.70
2023-01-10T18:38:35.058Z,21.83
2023-01-10T18:41:02.744Z,13.77
2023-01-10T18:43:31.297Z,17.37
2023-01-10T18:46:00.686Z,20.57
2023-01-10T18:48:28.319Z,19.30
2023-01-10T18:50:56.355Z,24.00
2023-01-10T18:53:23.752Z,22.93
2023-01-10T18:56:10.174Z,23.63
2023-01-10T18:58:39.118Z,21.20
2023-01-10T19:01:11.058Z,22.77
2023-01-10T19:03:38.812Z,26.93
2023-01-10T19:06:07.079Z,19.73
2023-01-10T19:08:36.280Z,31.57
2023-01-10T19:11:13.578Z,22.30
2023-01-10T19:13:41.662Z,17.17
2023-01-10T19:16:12.685Z,17.07
2023-01-10T19:18:40.198Z,22.73
2023-01-10T19:21:13.262Z,22.37
2023-01-10T19:23:40.836Z,14.20
2023-01-10T19:26:08.647Z,23.83
2023-01-10T19:28:36.134Z,21.50
2023-01-10T19:31:05.140Z,16.83
2023-01-10T19:33:34.596Z,31.73
2023-01-10T19:36:08.670Z,27.20
2023-01-10T19:38:36.218Z,20.43
2023-01-10T19:41:04.166Z,22.07
2023-01-10T19:43:32.153Z,17.60
2023-01-10T19:45:59.597Z,23.60
2023-01-10T19:48:27.023Z,18.97
2023-01-10T19:50:54.409Z,31.53
2023-01-10T19:53:25.303Z,14.93
2023-01-10T19:56:02.576Z,21.70
2023-01-10T19:58:29.973Z,16.00
2023-01-10T20:00:57.655Z,29.30
2023-01-10T20:03:25.216Z,21.27
2023-01-10T20:05:52.607Z,25.17
2023-01-10T20:08:20.497Z,28.57
2023-01-10T20:10:47.838Z,24.30
2023-01-10T20:13:15.471Z,24.97
2023-01-10T20:15:43.723Z,29.60
2023-01-10T20:18:11.174Z,22.27
2023-01-10T20:20:41.346Z,22.47
2023-01-10T20:23:11.433Z,22.07
2023-01-10T20:25:38.860Z,25.23
2023-01-10T20:28:06.248Z,21.20
2023-01-10T20:30:33.800Z,24.47
2023-01-10T20:33:01.181Z,20.70
2023-01-10T20:35:28.560Z,18.40
2023-01-10T20:37:56.008Z,19.60
2023-01-10T20:40:26.004Z,26.17
2023-01-10T20:42:53.368Z,23.23
2023-01-10T20:45:20.781Z,26.70
2023-01-10T20:47:51.317Z,20.47
2023-01-10T20:50:19.624Z,23.47
2023-01-10T20:52:47.244Z,29.23
2023-01-10T20:55:15.770Z,32.83
2023-01-10T20:57:43.129Z,26.90
2023-01-10T21:00:10.855Z,21.83
2023-01-10T21:02:41.364Z,25.00
2023-01-10T21:05:09.017Z,18.50
2023-01-10T21:07:38.871Z,16.53
2023-01-10T21:10:06.510Z,13.50
2023-01-10T21:12:34.412Z,18.97
2023-01-10T21:15:02.413Z,13.87
2023-01-10T21:17:30.164Z,16.63
2023-01-10T21:19:57.633Z,16.07
2023-01-10T21:22:25.075Z,12.97
2023-01-10T21:24:53.787Z,17.80
2023-01-10T21:27:21.493Z,15.80
2023-01-10T21:29:48.828Z,14.73
2023-01-10T21:32:16.213Z,14.97
2023-01-10T21:34:43.577Z,12.40
2023-01-10T21:37:11.088Z,35.00
2023-01-10T21:39:38.493Z,10.27
2023-01-10T21:42:24.458Z,11.60
2023-01-10T21:44:52.169Z,12.37
2023-01-10T21:47:19.791Z,9.83
2023-01-10T21:49:47.169Z,24.53
2023-01-10T21:52:14.754Z,8.20
2023-01-10T21:54:42.082Z,11.43
2023-01-10T21:57:09.495Z,9.23
2023-01-10T21:59:40.732Z,10.57
2023-01-10T22:02:12.583Z,10.20
2023-01-10T22:04:40.901Z,5.37
2023-01-10T22:07:08.650Z,6.03
2023-01-10T22:09:36.574Z,12.33
2023-01-10T22:12:04.197Z,9.20
2023-01-10T22:14:31.612Z,13.37
2023-01-10T22:16:58.994Z,5.73
2023-01-10T22:19:26.326Z,7.20
2023-01-10T22:21:53.671Z,8.30
2023-01-10T22:24:21.055Z,7.13
2023-01-10T22:26:49.288Z,11.10
2023-01-10T22:29:16.853Z,3.67
2023-01-10T22:31:44.340Z,12.63
2023-01-10T22:34:11.775Z,4.57
2023-01-10T22:36:39.197Z,2.93
2023-01-10T22:39:07.296Z,12.20
2023-01-10T22:41:34.746Z,6.27
2023-01-10T22:44:03.131Z,5.90
2023-01-10T22:46:30.801Z,3.20
2023-01-10T22:48:58.215Z,7.47
2023-01-10T22:51:31.154Z,4.10
2023-01-10T22:53:59.314Z,6.37
2023-01-10T22:56:29.154Z,3.73
2023-01-10T22:59:07.636Z,8.70
2023-01-10T23:01:36.852Z,7.73
2023-01-10T23:04:04.876Z,1.90
2023-01-10T23:06:32.410Z,2.43
2023-01-10T23:09:00.139Z,1.77
2023-01-10T23:11:27.544Z,1.57
2023-01-10T23:13:54.951Z,3.20
2023-01-10T23:16:28.503Z,5.03
2023-01-10T23:18:57.080Z,2.43
2023-01-10T23:21:24.841Z,4.63
2023-01-10T23:23:52.574Z,1.50
2023-01-10T23:26:19.941Z,2.90
2023-01-10T23:28:48.694Z,2.37
2023-01-10T23:31:17.462Z,4.57
2023-01-10T23:33:45.038Z,5.00
2023-01-10T23:36:12.810Z,1.63
2023-01-10T23:38:40.354Z,1.23
2023-01-10T23:41:08.126Z,5.93
2023-01-10T23:43:35.510Z,1.60
2023-01-10T23:46:03.287Z,1.30
2023-01-10T23:48:30.722Z,2.97
2023-01-10T23:50:58.748Z,2.80
2023-01-10T23:53:26.437Z,3.43
2023-01-10T23:55:53.790Z,1.83
2023-01-10T23:58:21.337Z,2.93
